createdAt,value
2017-12-15T00:02:17.076Z,2.23
2017-12-15T00:04:44.998Z,3.20
2017-12-15T00:07:12.848Z,2.77
2017-12-15T00:09:40.724Z,3.23
2017-12-15T00:12:08.586Z,3.00
2017-12-15T00:14:36.531Z,3.30
2017-12-15T00:17:04.468Z,2.67
2017-12-15T00:19:32.353Z,6.57
2017-12-15T00:22:00.225Z,4.90
2017-12-15T00:24:28.190Z,3.37
2017-12-15T00:26:56.086Z,4.70
2017-12-15T00:29:23.947Z,5.33
2017-12-15T00:31:51.844Z,6.00
2017-12-15T00:34:19.708Z,5.17
2017-12-15T00:36:47.549Z,5.73
2017-12-15T00:39:15.450Z,4.27
2017-12-15T00:41:43.324Z,4.83
2017-12-15T00:44:11.182Z,4.70
2017-12-15T00:46:39.097Z,5.20
2017-12-15T00:49:07.023Z,6.23
2017-12-15T00:51:34.940Z,6.47
2017-12-15T00:54:02.849Z,8.20
2017-12-15T00:56:30.740Z,7.90
2017-12-15T00:58:58.613Z,6.33
2017-12-15T01:01:26.504Z,6.80
2017-12-15T01:03:54.359Z,7.93
2017-12-15T01:06:22.207Z,5.60
2017-12-15T01:08:50.083Z,6.00
2017-12-15T01:11:17.976Z,6.20
2017-12-15T01:13:45.815Z,5.30
2017-12-15T01:16:13.705Z,5.83
2017-12-15T01:18:41.575Z,6.80
2017-12-15T01:21:09.435Z,7.30
2017-12-15T01:23:37.323Z,7.50
2017-12-15T01:26:05.284Z,8.67
2017-12-15T01:28:33.159Z,8.00
2017-12-15T01:31:01.059Z,11.23
2017-12-15T01:33:29.001Z,10.00
2017-12-15T01:35:56.877Z,11.30
2017-12-15T01:38:24.744Z,10.40
2017-12-15T01:40:52.580Z,13.17
2017-12-15T01:43:20.449Z,12.57
2017-12-15T01:45:48.849Z,11.97
2017-12-15T01:48:16.687Z,11.50
2017-12-15T01:50:44.615Z,11.17
2017-12-15T01:53:12.491Z,11.30
2017-12-15T01:55:40.349Z,11.80
2017-12-15T01:58:08.218Z,10.40
2017-12-15T02:00:36.099Z,11.07
2017-12-15T02:03:03.983Z,9.40
2017-12-15T02:05:31.884Z,10.30
2017-12-15T02:07:59.764Z,11.20
2017-12-15T02:10:27.645Z,10.93
2017-12-15T02:12:55.479Z,9.40
2017-12-15T02:15:23.359Z,9.50
2017-12-15T02:17:51.204Z,9.47
2017-12-15T02:20:20.061Z,8.70
2017-12-15T02:22:47.944Z,8.20
2017-12-15T02:25:15.788Z,7.87
2017-12-15T02:27:43.680Z,7.40
2017-12-15T02:30:11.560Z,8.27
2017-12-15T02:32:38.438Z,7.47
2017-12-15T02:35:04.581Z,8.10
2017-12-15T02:37:30.752Z,7.80
2017-12-15T02:39:56.843Z,8.50
2017-12-15T02:42:23.680Z,7.00
2017-12-15T02:44:49.810Z,8.53
2017-12-15T02:47:15.922Z,7.23
2017-12-15T02:49:42.008Z,8.37
2017-12-15T02:52:08.187Z,7.53
2017-12-15T02:54:34.293Z,7.27
2017-12-15T02:57:00.511Z,7.13
2017-12-15T02:59:28.395Z,6.30
2017-12-15T03:01:56.230Z,5.83
2017-12-15T03:04:24.065Z,6.50
2017-12-15T03:06:51.965Z,5.13
2017-12-15T03:09:19.815Z,5.73
2017-12-15T03:11:47.674Z,5.50
2017-12-15T03:14:15.540Z,5.30
2017-12-15T03:16:43.452Z,4.77
2017-12-15T03:19:11.316Z,5.20
2017-12-15T03:21:39.186Z,5.07
2017-12-15T03:24:07.076Z,5.27
2017-12-15T03:26:34.908Z,4.43
2017-12-15T03:29:01.083Z,4.60
2017-12-15T03:31:27.201Z,4.50
2017-12-15T03:33:53.297Z,4.00
2017-12-15T03:36:20.220Z,4.50
2017-12-15T03:38:46.376Z,4.57
2017-12-15T03:41:12.471Z,4.10
2017-12-15T03:43:38.609Z,4.40
2017-12-15T03:46:04.739Z,5.10
2017-12-15T03:48:30.863Z,4.97
2017-12-15T03:50:56.989Z,4.70
2017-12-15T03:53:23.080Z,4.73
2017-12-15T03:55:49.197Z,4.43
2017-12-15T03:58:15.319Z,4.97
2017-12-15T04:00:41.440Z,4.47
2017-12-15T04:03:07.589Z,4.73
2017-12-15T04:05:33.736Z,4.63
2017-12-15T04:07:59.836Z,5.33
2017-12-15T04:10:26.680Z,4.93
2017-12-15T04:12:52.809Z,4.93
2017-12-15T04:15:18.948Z,4.77
2017-12-15T04:17:45.036Z,4.33
2017-12-15T04:20:11.201Z,4.70
2017-12-15T04:22:37.283Z,4.80
2017-12-15T04:25:04.152Z,4.90
2017-12-15T04:27:30.324Z,4.67
2017-12-15T04:29:56.476Z,4.37
2017-12-15T04:32:22.573Z,4.40
2017-12-15T04:34:48.680Z,4.77
2017-12-15T04:37:14.781Z,5.63
2017-12-15T04:39:40.909Z,4.93
2017-12-15T04:42:07.787Z,4.63
2017-12-15T04:44:33.885Z,5.43
2017-12-15T04:47:00.021Z,5.10
2017-12-15T04:49:26.212Z,5.60
2017-12-15T04:51:52.304Z,4.70
2017-12-15T04:54:18.408Z,4.50
2017-12-15T04:56:45.296Z,4.97
2017-12-15T04:59:11.397Z,4.50
2017-12-15T05:01:37.492Z,5.10
2017-12-15T05:04:03.654Z,4.40
2017-12-15T05:06:29.784Z,5.43
2017-12-15T05:08:55.882Z,4.97
2017-12-15T05:11:22.018Z,4.70
2017-12-15T05:13:48.138Z,5.17
2017-12-15T05:16:14.232Z,4.23
2017-12-15T05:18:40.377Z,5.40
2017-12-15T05:21:06.505Z,4.90
2017-12-15T05:23:32.608Z,4.93
2017-12-15T05:25:58.755Z,4.70
2017-12-15T05:28:24.853Z,4.83
2017-12-15T05:30:50.972Z,4.77
2017-12-15T05:33:17.104Z,5.90
2017-12-15T05:35:43.221Z,5.60
2017-12-15T05:38:09.317Z,5.03
2017-12-15T05:40:35.440Z,4.83
2017-12-15T05:43:01.589Z,5.80
2017-12-15T05:45:27.693Z,5.20
2017-12-15T05:47:53.822Z,4.90
2017-12-15T05:50:19.912Z,5.47
2017-12-15T05:52:46.044Z,5.03
2017-12-15T05:55:12.197Z,6.13
2017-12-15T05:57:38.334Z,5.17
2017-12-15T06:00:04.454Z,5.33
2017-12-15T06:02:31.336Z,4.53
2017-12-15T06:04:57.433Z,5.30
2017-12-15T06:07:23.508Z,5.80
2017-12-15T06:09:50.516Z,5.80
2017-12-15T06:12:16.613Z,5.50
2017-12-15T06:14:42.761Z,6.13
2017-12-15T06:17:08.901Z,6.23
2017-12-15T06:19:35.044Z,6.60
2017-12-15T06:22:01.180Z,7.07
2017-12-15T06:24:27.353Z,6.87
2017-12-15T06:26:53.545Z,6.50
2017-12-15T06:29:19.648Z,6.83
2017-12-15T06:31:46.565Z,6.60
2017-12-15T06:34:12.672Z,6.10
2017-12-15T06:36:38.773Z,7.30
2017-12-15T06:39:04.921Z,7.40
2017-12-15T06:41:31.770Z,7.00
2017-12-15T06:43:58.620Z,9.30
2017-12-15T06:46:25.484Z,8.87
2017-12-15T06:48:52.345Z,8.73
2017-12-15T06:51:19.197Z,7.67
2017-12-15T06:53:45.327Z,8.30
2017-12-15T06:56:12.172Z,7.63
2017-12-15T06:58:38.257Z,8.60
2017-12-15T07:01:04.404Z,7.60
2017-12-15T07:03:30.573Z,7.50
2017-12-15T07:05:56.677Z,7.17
2017-12-15T07:08:22.779Z,7.37
2017-12-15T07:10:49.709Z,7.60
2017-12-15T07:13:15.872Z,6.80
2017-12-15T07:15:42.736Z,8.40
2017-12-15T07:18:08.853Z,7.63
2017-12-15T07:20:35.016Z,7.80
2017-12-15T07:23:02.000Z,7.00
2017-12-15T07:25:28.789Z,7.10
2017-12-15T07:27:54.883Z,8.80
2017-12-15T07:30:21.050Z,7.63
2017-12-15T07:32:47.216Z,7.90
2017-12-15T07:35:13.332Z,7.50
2017-12-15T07:37:39.473Z,7.93
2017-12-15T07:40:05.557Z,8.30
2017-12-15T07:42:31.690Z,9.93
2017-12-15T07:44:58.552Z,9.10
2017-12-15T07:47:24.692Z,7.33
2017-12-15T07:49:50.776Z,8.10
2017-12-15T07:52:16.900Z,7.50
2017-12-15T07:54:43.027Z,7.57
2017-12-15T07:57:10.134Z,7.33
2017-12-15T07:59:36.256Z,7.80
2017-12-15T08:02:02.395Z,6.47
2017-12-15T08:04:28.565Z,7.47
2017-12-15T08:06:54.708Z,6.67
2017-12-15T08:09:21.589Z,7.50
2017-12-15T08:11:47.673Z,12.00
2017-12-15T08:14:13.806Z,8.20
2017-12-15T08:16:40.002Z,8.70
2017-12-15T08:19:06.172Z,8.30
2017-12-15T08:21:32.300Z,7.70
2017-12-15T08:23:58.404Z,6.77
2017-12-15T08:26:25.244Z,6.90
2017-12-15T08:28:52.117Z,6.80
2017-12-15T08:31:18.212Z,6.57
2017-12-15T08:33:44.365Z,7.40
2017-12-15T08:36:10.511Z,6.67
2017-12-15T08:38:36.629Z,7.20
2017-12-15T08:41:02.865Z,6.80
2017-12-15T08:43:29.001Z,6.73
2017-12-15T08:45:55.117Z,7.70
2017-12-15T08:48:22.058Z,7.37
2017-12-15T08:50:48.210Z,7.83
2017-12-15T08:53:14.316Z,8.57
2017-12-15T08:55:40.413Z,8.13
2017-12-15T08:58:06.976Z,9.90
2017-12-15T09:00:33.123Z,7.90
2017-12-15T09:02:59.226Z,9.77
2017-12-15T09:05:25.332Z,9.57
2017-12-15T09:07:51.437Z,11.43
2017-12-15T09:10:17.547Z,8.93
2017-12-15T09:12:43.697Z,11.20
2017-12-15T09:15:12.543Z,10.13
2017-12-15T09:17:35.933Z,11.20
2017-12-15T09:20:02.077Z,10.20
2017-12-15T09:22:28.166Z,11.40
2017-12-15T09:24:54.260Z,10.60
2017-12-15T09:27:20.372Z,9.87
2017-12-15T09:29:46.526Z,9.27
2017-12-15T09:32:12.604Z,8.53
2017-12-15T09:34:38.748Z,8.43
2017-12-15T09:37:04.840Z,9.00
2017-12-15T09:39:31.002Z,7.97
2017-12-15T09:41:57.143Z,7.30
2017-12-15T09:44:23.284Z,8.07
2017-12-15T09:46:51.128Z,8.20
2017-12-15T09:49:19.024Z,9.03
2017-12-15T09:51:46.852Z,7.53
2017-12-15T09:54:14.680Z,9.00
2017-12-15T09:56:42.547Z,7.80
2017-12-15T09:59:10.431Z,7.70
2017-12-15T10:01:38.383Z,7.30
2017-12-15T10:04:06.355Z,8.57
2017-12-15T10:06:34.279Z,6.40
2017-12-15T10:09:02.190Z,8.07
2017-12-15T10:11:30.088Z,8.00
2017-12-15T10:13:58.010Z,8.27
2017-12-15T10:16:25.847Z,7.90
2017-12-15T10:18:53.799Z,8.00
2017-12-15T10:21:21.655Z,7.87
2017-12-15T10:23:49.553Z,8.40
2017-12-15T10:26:17.484Z,8.10
2017-12-15T10:28:45.403Z,6.93
2017-12-15T10:31:13.322Z,7.67
2017-12-15T10:33:41.188Z,7.80
2017-12-15T10:36:09.120Z,7.77
2017-12-15T10:38:37.050Z,8.30
2017-12-15T10:41:05.032Z,7.90
2017-12-15T10:43:32.876Z,9.03
2017-12-15T10:46:00.723Z,8.23
2017-12-15T10:48:28.591Z,8.70
2017-12-15T10:50:56.428Z,9.50
2017-12-15T10:53:24.289Z,10.10
2017-12-15T10:55:50.487Z,10.10
2017-12-15T10:58:18.412Z,9.97
2017-12-15T11:00:46.281Z,10.20
2017-12-15T11:03:14.134Z,11.30
2017-12-15T11:05:41.963Z,11.53
2017-12-15T11:08:09.831Z,20.07
2017-12-15T11:10:37.749Z,11.60
2017-12-15T11:13:05.658Z,11.43
2017-12-15T11:15:33.678Z,10.20
2017-12-15T11:18:01.613Z,12.60
2017-12-15T11:20:29.532Z,10.87
2017-12-15T11:22:57.406Z,11.70
2017-12-15T11:25:25.279Z,14.90
2017-12-15T11:30:27.697Z,12.40
2017-12-15T11:32:55.539Z,13.87
2017-12-15T11:35:23.451Z,12.53
2017-12-15T11:37:51.369Z,13.47
2017-12-15T11:40:19.228Z,14.33
2017-12-15T11:42:47.079Z,12.60
2017-12-15T11:45:14.967Z,12.97
2017-12-15T11:47:42.862Z,14.47
2017-12-15T11:50:10.728Z,16.97
2017-12-15T11:52:38.621Z,14.90
2017-12-15T11:55:06.532Z,13.70
2017-12-15T11:57:34.560Z,13.33
2017-12-15T12:00:02.481Z,18.57
2017-12-15T12:02:30.494Z,11.97
2017-12-15T12:05:00.503Z,16.63
2017-12-15T12:07:29.020Z,14.80
2017-12-15T12:09:56.980Z,15.13
2017-12-15T12:12:24.844Z,11.10
2017-12-15T12:14:52.707Z,11.13
2017-12-15T12:17:20.560Z,11.10
2017-12-15T12:19:50.436Z,10.13
2017-12-15T12:22:18.460Z,10.90
2017-12-15T12:24:46.395Z,9.60
2017-12-15T12:27:14.296Z,9.43
2017-12-15T12:29:42.208Z,10.03
2017-12-15T12:32:10.137Z,8.90
2017-12-15T12:34:38.008Z,10.60
2017-12-15T12:37:06.056Z,11.37
2017-12-15T12:39:33.954Z,10.40
2017-12-15T12:42:01.861Z,9.83
2017-12-15T12:44:29.810Z,9.57
2017-12-15T12:46:57.733Z,10.30
2017-12-15T12:49:25.617Z,10.20
2017-12-15T12:51:53.504Z,9.80
2017-12-15T12:54:21.351Z,8.97
2017-12-15T12:56:49.187Z,9.97
2017-12-15T12:59:17.100Z,12.40
2017-12-15T13:01:44.969Z,10.43
2017-12-15T13:04:12.846Z,12.40
2017-12-15T13:06:41.811Z,10.10
2017-12-15T13:09:09.769Z,15.70
2017-12-15T13:11:37.666Z,16.90
2017-12-15T13:14:05.707Z,15.00
2017-12-15T13:16:33.619Z,13.83
2017-12-15T13:19:02.644Z,12.90
2017-12-15T13:21:30.643Z,17.30
2017-12-15T13:23:58.570Z,17.80
2017-12-15T13:26:26.640Z,18.77
2017-12-15T13:28:54.600Z,13.10
2017-12-15T13:31:22.477Z,13.30
2017-12-15T13:33:50.370Z,40.83
2017-12-15T13:36:18.308Z,29.00
2017-12-15T13:38:46.165Z,19.27
2017-12-15T13:41:14.053Z,23.77
2017-12-15T13:43:42.804Z,15.60
2017-12-15T13:46:10.653Z,14.17
2017-12-15T13:48:38.536Z,15.97
2017-12-15T13:51:06.409Z,17.00
2017-12-15T13:53:34.421Z,16.73
2017-12-15T13:56:02.269Z,18.37
2017-12-15T13:58:30.160Z,20.87
2017-12-15T14:00:58.009Z,19.07
2017-12-15T14:03:25.877Z,21.77
2017-12-15T14:05:53.821Z,23.23
2017-12-15T14:08:21.726Z,20.57
2017-12-15T14:10:49.576Z,21.53
2017-12-15T14:13:17.511Z,22.10
2017-12-15T14:15:45.369Z,24.60
2017-12-15T14:18:13.253Z,24.30
2017-12-15T14:20:41.173Z,22.10
2017-12-15T14:23:09.048Z,23.70
2017-12-15T14:25:36.898Z,23.00
2017-12-15T14:28:04.913Z,24.70
2017-12-15T14:30:32.799Z,24.33
2017-12-15T14:33:00.785Z,24.40
2017-12-15T14:35:28.660Z,24.10
2017-12-15T14:37:56.620Z,25.03
2017-12-15T14:40:24.632Z,25.20
2017-12-15T14:42:52.575Z,25.30
2017-12-15T14:45:20.576Z,24.40
2017-12-15T14:47:48.431Z,31.33
2017-12-15T14:50:16.344Z,26.30
2017-12-15T14:52:44.175Z,25.60
2017-12-15T14:55:12.022Z,23.97
2017-12-15T14:57:39.912Z,25.33
2017-12-15T15:00:07.834Z,24.80
2017-12-15T15:02:35.838Z,25.37
2017-12-15T15:05:03.807Z,26.67
2017-12-15T15:07:32.548Z,24.03
2017-12-15T15:10:00.475Z,27.13
2017-12-15T15:12:28.404Z,27.13
2017-12-15T15:14:56.252Z,25.83
2017-12-15T15:17:24.104Z,24.53
2017-12-15T15:19:52.250Z,24.93
2017-12-15T15:22:20.166Z,25.17
2017-12-15T15:24:48.038Z,25.30
2017-12-15T15:27:15.911Z,25.97
2017-12-15T15:29:43.824Z,24.17
2017-12-15T15:32:11.684Z,24.37
2017-12-15T15:34:39.619Z,28.40
2017-12-15T15:37:07.475Z,25.80
2017-12-15T15:39:35.388Z,25.60
2017-12-15T15:42:03.308Z,27.30
2017-12-15T15:44:31.169Z,26.10
2017-12-15T15:46:59.213Z,27.30
2017-12-15T15:49:27.093Z,30.00
2017-12-15T15:51:54.989Z,31.67
2017-12-15T15:54:22.828Z,29.83
2017-12-15T15:56:50.714Z,28.00
2017-12-15T16:01:53.214Z,28.10
2017-12-15T16:04:21.114Z,26.57
2017-12-15T16:06:49.097Z,27.50
2017-12-15T16:09:17.001Z,34.00
2017-12-15T16:11:44.845Z,27.33
2017-12-15T16:14:12.745Z,25.83
2017-12-15T16:16:40.615Z,24.57
2017-12-15T16:19:08.472Z,27.67
2017-12-15T16:21:36.525Z,29.30
2017-12-15T16:24:04.472Z,26.87
2017-12-15T16:26:32.329Z,30.57
2017-12-15T16:29:00.415Z,27.27
2017-12-15T16:31:29.809Z,26.67
2017-12-15T16:33:57.628Z,26.90
2017-12-15T16:36:25.478Z,27.50
2017-12-15T16:38:53.353Z,28.93
2017-12-15T16:41:21.192Z,29.30
2017-12-15T16:43:49.140Z,26.77
2017-12-15T16:46:17.023Z,27.43
2017-12-15T16:48:44.868Z,26.87
2017-12-15T16:51:12.849Z,27.43
2017-12-15T16:53:40.823Z,27.30
2017-12-15T16:56:08.704Z,26.43
2017-12-15T16:58:36.556Z,28.33
2017-12-15T17:01:04.427Z,29.00
2017-12-15T17:03:32.292Z,27.80
2017-12-15T17:06:00.134Z,28.50
2017-12-15T17:08:28.002Z,28.60
2017-12-15T17:10:55.880Z,31.60
2017-12-15T17:13:23.736Z,29.93
2017-12-15T17:15:51.604Z,28.03
2017-12-15T17:18:19.477Z,28.30
2017-12-15T17:20:47.365Z,28.90
2017-12-15T17:23:15.237Z,29.27
2017-12-15T17:25:43.171Z,34.57
2017-12-15T17:28:11.068Z,27.40
2017-12-15T17:30:38.935Z,33.27
2017-12-15T17:33:06.793Z,27.57
2017-12-15T17:35:34.665Z,31.20
2017-12-15T17:38:02.611Z,30.00
2017-12-15T17:40:30.483Z,29.00
2017-12-15T17:42:58.365Z,29.50
2017-12-15T17:45:26.250Z,28.70
2017-12-15T17:47:54.156Z,28.43
2017-12-15T17:50:22.008Z,28.20
2017-12-15T17:52:49.880Z,26.47
2017-12-15T17:55:17.812Z,35.03
2017-12-15T17:57:45.732Z,27.80
2017-12-15T18:00:13.624Z,29.00
2017-12-15T18:02:41.491Z,27.70
2017-12-15T18:05:09.377Z,27.57
2017-12-15T18:07:37.248Z,27.83
2017-12-15T18:10:05.147Z,27.77
2017-12-15T18:12:33.055Z,32.60
2017-12-15T18:15:01.054Z,30.83
2017-12-15T18:17:28.925Z,29.83
2017-12-15T18:19:56.771Z,50.30
2017-12-15T18:22:24.754Z,39.27
2017-12-15T18:24:52.647Z,31.97
2017-12-15T18:27:20.496Z,35.67
2017-12-15T18:29:48.388Z,31.10
2017-12-15T18:32:16.258Z,31.93
2017-12-15T18:34:44.096Z,32.50
2017-12-15T18:37:11.979Z,34.47
2017-12-15T18:39:39.844Z,31.93
2017-12-15T18:42:07.684Z,29.40
2017-12-15T18:44:35.639Z,32.27
2017-12-15T18:47:03.560Z,33.83
2017-12-15T18:49:31.452Z,28.63
2017-12-15T18:51:59.333Z,31.00
2017-12-15T18:54:27.188Z,30.10
2017-12-15T18:56:55.109Z,31.43
2017-12-15T18:59:23.024Z,30.87
2017-12-15T19:01:50.883Z,30.83
2017-12-15T19:04:18.725Z,32.10
2017-12-15T19:06:46.592Z,32.47
2017-12-15T19:09:14.450Z,30.07
2017-12-15T19:11:42.283Z,39.73
2017-12-15T19:14:10.155Z,35.93
2017-12-15T19:16:38.021Z,25.50
2017-12-15T19:19:05.863Z,31.47
2017-12-15T19:21:33.939Z,31.17
2017-12-15T19:24:01.804Z,33.90
2017-12-15T19:26:29.756Z,30.90
2017-12-15T19:28:57.651Z,30.30
2017-12-15T19:31:25.497Z,25.67
2017-12-15T19:33:53.365Z,27.63
2017-12-15T19:36:21.251Z,28.10
2017-12-15T19:38:49.124Z,32.77
2017-12-15T19:41:17.586Z,26.37
2017-12-15T19:43:45.484Z,25.53
2017-12-15T19:46:13.349Z,24.60
2017-12-15T19:48:41.217Z,26.47
2017-12-15T19:51:09.100Z,26.50
2017-12-15T19:53:36.949Z,29.07
2017-12-15T19:56:04.806Z,28.57
2017-12-15T19:58:33.006Z,30.77
2017-12-15T20:01:00.927Z,27.43
2017-12-15T20:03:28.897Z,27.27
2017-12-15T20:05:56.785Z,28.07
2017-12-15T20:08:25.252Z,24.37
2017-12-15T20:10:53.099Z,26.47
2017-12-15T20:13:20.961Z,26.13
2017-12-15T20:15:48.830Z,25.50
2017-12-15T20:18:16.667Z,24.40
2017-12-15T20:20:44.545Z,29.60
2017-12-15T20:23:12.446Z,26.30
2017-12-15T20:25:40.360Z,28.70
2017-12-15T20:28:08.305Z,26.03
2017-12-15T20:30:36.244Z,27.47
2017-12-15T20:33:04.080Z,23.70
2017-12-15T20:35:31.980Z,24.37
2017-12-15T20:37:59.847Z,26.10
2017-12-15T20:40:27.687Z,24.00
2017-12-15T20:42:55.582Z,22.27
2017-12-15T20:45:23.451Z,22.50
2017-12-15T20:47:51.336Z,22.20
2017-12-15T20:50:19.852Z,20.63
2017-12-15T20:52:47.703Z,22.37
2017-12-15T20:55:15.530Z,22.50
2017-12-15T20:57:43.388Z,22.13
2017-12-15T21:00:11.334Z,22.37
2017-12-15T21:02:39.168Z,21.57
2017-12-15T21:05:07.101Z,27.93
2017-12-15T21:07:34.998Z,25.57
2017-12-15T21:10:02.849Z,20.43
2017-12-15T21:12:30.822Z,20.97
2017-12-15T21:14:58.716Z,21.07
2017-12-15T21:17:26.572Z,23.07
2017-12-15T21:19:54.511Z,23.80
2017-12-15T21:22:22.345Z,24.03
2017-12-15T21:24:50.218Z,25.50
2017-12-15T21:27:18.215Z,22.60
2017-12-15T21:29:46.068Z,23.73
2017-12-15T21:32:13.957Z,21.80
2017-12-15T21:34:41.833Z,27.67
2017-12-15T21:37:09.832Z,24.90
2017-12-15T21:39:37.696Z,20.67
2017-12-15T21:42:05.582Z,25.50
2017-12-15T21:44:33.487Z,22.73
2017-12-15T21:47:01.344Z,23.50
2017-12-15T21:49:30.101Z,20.60
2017-12-15T21:51:58.012Z,23.90
2017-12-15T21:54:25.864Z,21.83
2017-12-15T21:56:53.741Z,23.00
2017-12-15T21:59:21.583Z,21.57
2017-12-15T22:01:49.473Z,19.67
2017-12-15T22:04:17.356Z,21.50
2017-12-15T22:06:45.210Z,22.67
2017-12-15T22:09:13.041Z,20.57
2017-12-15T22:11:40.976Z,22.63
2017-12-15T22:14:08.824Z,22.83
2017-12-15T22:16:36.668Z,21.70
2017-12-15T22:19:04.549Z,21.87
2017-12-15T22:21:32.400Z,21.60
2017-12-15T22:24:00.251Z,19.33
2017-12-15T22:26:28.132Z,27.80
2017-12-15T22:28:56.012Z,20.03
2017-12-15T22:31:23.856Z,21.30
2017-12-15T22:33:51.801Z,18.97
2017-12-15T22:36:19.631Z,19.60
2017-12-15T22:38:47.492Z,20.57
2017-12-15T22:41:15.368Z,20.63
2017-12-15T22:43:43.197Z,23.60
2017-12-15T22:46:11.074Z,25.27
2017-12-15T22:48:38.936Z,19.40
2017-12-15T22:51:06.828Z,21.40
2017-12-15T22:53:34.688Z,19.27
2017-12-15T22:56:02.564Z,22.63
2017-12-15T22:58:30.472Z,22.47
2017-12-15T23:00:58.320Z,20.80
2017-12-15T23:03:26.259Z,18.80
2017-12-15T23:05:54.091Z,15.47
2017-12-15T23:08:21.939Z,19.00
2017-12-15T23:10:49.831Z,21.23
2017-12-15T23:13:17.656Z,18.00
2017-12-15T23:15:45.514Z,25.10
2017-12-15T23:18:13.383Z,17.67
2017-12-15T23:20:41.248Z,20.37
2017-12-15T23:23:09.083Z,17.70
2017-12-15T23:25:36.983Z,19.20
2017-12-15T23:28:04.833Z,17.30
2017-12-15T23:30:32.668Z,18.63
2017-12-15T23:33:00.544Z,17.90
2017-12-15T23:35:28.372Z,14.63
2017-12-15T23:37:56.212Z,17.67
2017-12-15T23:40:24.076Z,17.30
2017-12-15T23:42:51.924Z,18.10
2017-12-15T23:45:19.792Z,19.63
2017-12-15T23:47:47.653Z,16.00
2017-12-15T23:50:15.508Z,15.93
2017-12-15T23:52:43.352Z,19.00
2017-12-15T23:55:17.528Z,20.23
2017-12-15T23:57:45.379Z,18.73
